createdAt,value
2019-01-14T00:00:21.747Z,986.86
2019-01-14T00:01:21.775Z,986.85
2019-01-14T00:02:21.803Z,986.82
2019-01-14T00:03:21.830Z,986.84
2019-01-14T00:04:21.858Z,986.81
2019-01-14T00:05:21.886Z,986.77
2019-01-14T00:06:21.914Z,986.79
2019-01-14T00:07:21.943Z,986.79
2019-01-14T00:08:21.968Z,986.83
2019-01-14T00:09:23.088Z,986.82
2019-01-14T00:10:22.024Z,986.77
2019-01-14T00:11:22.052Z,986.82
2019-01-14T00:12:22.082Z,986.77
2019-01-14T00:13:22.110Z,986.78
2019-01-14T00:14:22.136Z,986.76
2019-01-14T00:15:22.164Z,986.77
2019-01-14T00:16:22.192Z,986.78
2019-01-14T00:17:22.221Z,986.79
2019-01-14T00:18:22.248Z,986.79
2019-01-14T00:19:22.276Z,986.78
2019-01-14T00:20:22.304Z,986.72
2019-01-14T00:21:22.344Z,986.76
2019-01-14T00:22:22.359Z,986.76
2019-01-14T00:23:22.389Z,986.75
2019-01-14T00:24:22.416Z,986.69
2019-01-14T00:25:22.444Z,986.69
2019-01-14T00:26:22.472Z,986.70
2019-01-14T00:27:22.502Z,986.71
2019-01-14T00:28:22.583Z,986.70
2019-01-14T00:29:22.557Z,986.68
2019-01-14T00:30:22.585Z,986.72
2019-01-14T00:31:22.613Z,986.71
2019-01-14T00:32:22.641Z,986.67
2019-01-14T00:33:22.670Z,986.76
2019-01-14T00:34:22.697Z,986.72
2019-01-14T00:35:22.723Z,986.83
2019-01-14T00:36:22.752Z,986.83
2019-01-14T00:37:22.781Z,986.80
2019-01-14T00:38:22.807Z,986.84
2019-01-14T00:39:22.837Z,986.85
2019-01-14T00:40:22.867Z,986.91
2019-01-14T00:41:22.892Z,987.00
2019-01-14T00:42:22.919Z,987.01
2019-01-14T00:43:22.948Z,987.08
2019-01-14T00:44:22.977Z,987.04
2019-01-14T00:45:23.004Z,987.18
2019-01-14T00:46:23.031Z,987.24
2019-01-14T00:47:23.061Z,987.20
2019-01-14T00:48:23.088Z,987.28
2019-01-14T00:49:23.117Z,987.25
2019-01-14T00:50:23.144Z,987.46
2019-01-14T00:51:23.170Z,987.50
2019-01-14T00:52:23.199Z,987.47
2019-01-14T00:53:23.227Z,987.70
2019-01-14T00:54:23.254Z,987.60
2019-01-14T00:55:23.283Z,987.75
2019-01-14T00:56:23.308Z,987.63
2019-01-14T00:57:23.338Z,987.65
2019-01-14T00:58:23.365Z,987.90
2019-01-14T00:59:23.390Z,987.88
2019-01-14T01:00:23.418Z,987.94
2019-01-14T01:01:23.446Z,987.83
2019-01-14T01:02:23.472Z,987.80
2019-01-14T01:03:23.500Z,987.72
2019-01-14T01:04:23.526Z,987.79
2019-01-14T01:05:23.557Z,987.85
2019-01-14T01:06:24.750Z,987.87
2019-01-14T01:07:23.607Z,987.92
2019-01-14T01:08:23.634Z,987.87
2019-01-14T01:09:23.662Z,987.86
2019-01-14T01:10:23.687Z,987.94
2019-01-14T01:11:23.716Z,987.86
2019-01-14T01:12:23.742Z,987.88
2019-01-14T01:13:23.768Z,987.88
2019-01-14T01:14:23.796Z,987.88
2019-01-14T01:15:23.822Z,987.95
2019-01-14T01:16:23.849Z,987.97
2019-01-14T01:17:23.875Z,987.96
2019-01-14T01:18:23.902Z,988.05
2019-01-14T01:19:23.929Z,988.05
2019-01-14T01:20:23.956Z,988.09
2019-01-14T01:21:23.982Z,988.13
2019-01-14T01:22:24.008Z,988.09
2019-01-14T01:23:24.036Z,988.16
2019-01-14T01:24:24.063Z,988.18
2019-01-14T01:25:24.090Z,988.15
2019-01-14T01:26:24.116Z,988.14
2019-01-14T01:27:24.142Z,988.13
2019-01-14T01:28:24.169Z,988.14
2019-01-14T01:29:24.198Z,988.07
2019-01-14T01:30:24.222Z,987.98
2019-01-14T01:31:24.249Z,988.10
2019-01-14T01:32:24.330Z,988.16
2019-01-14T01:33:24.305Z,988.23
2019-01-14T01:34:24.329Z,988.24
2019-01-14T01:35:24.354Z,988.25
2019-01-14T01:36:24.385Z,988.20
2019-01-14T01:37:24.409Z,988.21
2019-01-14T01:38:24.434Z,988.24
2019-01-14T01:39:24.462Z,988.29
2019-01-14T01:40:24.488Z,988.27
2019-01-14T01:41:24.515Z,988.31
2019-01-14T01:42:24.549Z,988.26
2019-01-14T01:43:24.568Z,988.24
2019-01-14T01:44:24.595Z,988.26
2019-01-14T01:45:24.624Z,988.32
2019-01-14T01:46:24.648Z,988.32
2019-01-14T01:47:24.676Z,988.25
2019-01-14T01:48:24.706Z,988.16
2019-01-14T01:49:24.733Z,988.18
2019-01-14T01:50:24.757Z,988.26
2019-01-14T01:51:24.784Z,988.33
2019-01-14T01:52:24.810Z,988.44
2019-01-14T01:53:24.836Z,988.52
2019-01-14T01:54:24.866Z,988.57
2019-01-14T01:55:24.889Z,988.59
2019-01-14T01:56:24.968Z,988.48
2019-01-14T01:57:24.945Z,988.40
2019-01-14T01:58:24.970Z,988.41
2019-01-14T01:59:24.999Z,988.37
2019-01-14T02:00:25.024Z,988.45
2019-01-14T02:01:25.054Z,988.48
2019-01-14T02:02:25.079Z,988.59
2019-01-14T02:03:25.107Z,988.63
2019-01-14T02:04:25.133Z,988.72
2019-01-14T02:05:25.160Z,988.74
2019-01-14T02:06:25.185Z,988.74
2019-01-14T02:07:25.212Z,988.71
2019-01-14T02:08:25.240Z,988.72
2019-01-14T02:09:25.267Z,988.70
2019-01-14T02:10:25.294Z,988.69
2019-01-14T02:11:25.322Z,988.67
2019-01-14T02:12:25.349Z,988.73
2019-01-14T02:13:25.374Z,988.75
2019-01-14T02:14:25.403Z,988.75
2019-01-14T02:15:25.428Z,988.86
2019-01-14T02:16:25.456Z,988.85
2019-01-14T02:17:25.483Z,988.86
2019-01-14T02:18:25.509Z,988.89
2019-01-14T02:19:25.536Z,988.89
2019-01-14T02:20:25.564Z,988.99
2019-01-14T02:21:25.592Z,989.00
2019-01-14T02:22:25.617Z,988.99
2019-01-14T02:23:25.645Z,988.97
2019-01-14T02:24:25.672Z,989.03
2019-01-14T02:25:25.699Z,989.07
2019-01-14T02:26:25.725Z,989.13
2019-01-14T02:27:25.752Z,989.16
2019-01-14T02:28:25.781Z,989.17
2019-01-14T02:29:25.807Z,989.23
2019-01-14T02:30:25.834Z,989.21
2019-01-14T02:31:25.860Z,989.22
2019-01-14T02:32:25.887Z,989.20
2019-01-14T02:33:25.916Z,989.18
2019-01-14T02:34:25.943Z,989.21
2019-01-14T02:35:25.969Z,989.21
2019-01-14T02:36:25.996Z,989.22
2019-01-14T02:37:26.022Z,989.27
2019-01-14T02:38:26.052Z,989.26
2019-01-14T02:39:26.077Z,989.31
2019-01-14T02:40:26.103Z,989.29
2019-01-14T02:41:26.131Z,989.26
2019-01-14T02:42:26.157Z,989.29
2019-01-14T02:43:26.184Z,989.29
2019-01-14T02:44:26.213Z,989.30
2019-01-14T02:45:26.239Z,989.36
2019-01-14T02:46:26.265Z,989.38
2019-01-14T02:47:26.292Z,989.37
2019-01-14T02:48:26.319Z,989.42
2019-01-14T02:49:26.346Z,989.44
2019-01-14T02:50:26.372Z,989.44
2019-01-14T02:51:26.400Z,989.48
2019-01-14T02:52:26.431Z,989.47
2019-01-14T02:53:26.456Z,989.44
2019-01-14T02:54:26.483Z,989.48
2019-01-14T02:55:26.508Z,989.45
2019-01-14T02:56:26.539Z,989.49
2019-01-14T02:57:26.563Z,989.50
2019-01-14T02:58:26.590Z,989.46
2019-01-14T02:59:26.618Z,989.49
2019-01-14T03:00:26.646Z,989.49
2019-01-14T03:01:26.671Z,989.50
2019-01-14T03:02:26.698Z,989.53
2019-01-14T03:03:26.724Z,989.55
2019-01-14T03:04:26.752Z,989.57
2019-01-14T03:05:26.780Z,989.56
2019-01-14T03:06:26.807Z,989.61
2019-01-14T03:07:26.834Z,989.62
2019-01-14T03:08:26.860Z,989.60
2019-01-14T03:09:26.895Z,989.66
2019-01-14T03:10:26.913Z,989.68
2019-01-14T03:11:26.942Z,989.67
2019-01-14T03:12:26.970Z,989.78
2019-01-14T03:13:26.996Z,989.79
2019-01-14T03:14:27.023Z,989.81
2019-01-14T03:15:27.049Z,989.81
2019-01-14T03:16:27.077Z,989.87
2019-01-14T03:17:27.103Z,989.94
2019-01-14T03:18:27.130Z,989.93
2019-01-14T03:19:27.157Z,989.95
2019-01-14T03:20:27.185Z,989.99
2019-01-14T03:21:27.211Z,990.03
2019-01-14T03:22:27.238Z,990.06
2019-01-14T03:23:27.266Z,990.04
2019-01-14T03:24:27.296Z,990.12
2019-01-14T03:25:27.370Z,990.10
2019-01-14T03:26:27.345Z,990.06
2019-01-14T03:27:27.391Z,990.11
2019-01-14T03:28:27.401Z,990.16
2019-01-14T03:29:27.427Z,990.16
2019-01-14T03:30:27.456Z,990.17
2019-01-14T03:31:27.483Z,990.18
2019-01-14T03:32:27.509Z,990.21
2019-01-14T03:33:27.536Z,990.20
2019-01-14T03:34:27.562Z,990.24
2019-01-14T03:35:27.589Z,990.26
2019-01-14T03:36:27.616Z,990.31
2019-01-14T03:37:27.643Z,990.29
2019-01-14T03:38:27.672Z,990.32
2019-01-14T03:39:27.697Z,990.35
2019-01-14T03:40:27.725Z,990.32
2019-01-14T03:41:27.751Z,990.36
2019-01-14T03:42:27.778Z,990.38
2019-01-14T03:43:27.805Z,990.36
2019-01-14T03:44:27.832Z,990.38
2019-01-14T03:45:27.861Z,990.32
2019-01-14T03:46:27.885Z,990.34
2019-01-14T03:47:27.912Z,990.35
2019-01-14T03:48:27.939Z,990.34
2019-01-14T03:49:27.972Z,990.29
2019-01-14T03:50:27.993Z,990.29
2019-01-14T03:51:28.020Z,990.36
2019-01-14T03:52:28.047Z,990.33
2019-01-14T03:53:28.075Z,990.28
2019-01-14T03:54:28.101Z,990.26
2019-01-14T03:55:28.131Z,990.30
2019-01-14T03:56:28.156Z,990.29
2019-01-14T03:57:28.184Z,990.30
2019-01-14T03:58:28.209Z,990.35
2019-01-14T03:59:28.249Z,990.32
2019-01-14T04:00:28.264Z,990.36
2019-01-14T04:01:28.289Z,990.38
2019-01-14T04:02:28.315Z,990.41
2019-01-14T04:03:28.341Z,990.39
2019-01-14T04:04:28.369Z,990.44
2019-01-14T04:05:28.397Z,990.48
2019-01-14T04:06:28.422Z,990.46
2019-01-14T04:07:28.449Z,990.42
2019-01-14T04:08:28.478Z,990.42
2019-01-14T04:09:28.504Z,990.42
2019-01-14T04:10:28.530Z,990.48
2019-01-14T04:11:28.559Z,990.48
2019-01-14T04:12:28.584Z,990.52
2019-01-14T04:13:28.612Z,990.54
2019-01-14T04:14:28.637Z,990.49
2019-01-14T04:15:28.667Z,990.52
2019-01-14T04:16:28.692Z,990.60
2019-01-14T04:17:28.718Z,990.54
2019-01-14T04:18:28.745Z,990.58
2019-01-14T04:19:28.771Z,990.56
2019-01-14T04:20:28.798Z,990.58
2019-01-14T04:21:28.825Z,990.67
2019-01-14T04:22:28.851Z,990.69
2019-01-14T04:23:28.877Z,990.71
2019-01-14T04:24:28.905Z,990.66
2019-01-14T04:25:28.932Z,990.67
2019-01-14T04:26:28.957Z,990.72
2019-01-14T04:27:28.985Z,990.75
2019-01-14T04:28:29.011Z,990.76
2019-01-14T04:29:29.042Z,990.75
2019-01-14T04:30:29.067Z,990.83
2019-01-14T04:31:29.091Z,990.79
2019-01-14T04:32:29.119Z,990.88
2019-01-14T04:33:29.146Z,990.78
2019-01-14T04:34:29.172Z,990.84
2019-01-14T04:35:29.198Z,990.88
2019-01-14T04:36:29.226Z,990.89
2019-01-14T04:37:29.253Z,990.87
2019-01-14T04:38:29.278Z,990.91
2019-01-14T04:39:29.307Z,990.88
2019-01-14T04:40:29.335Z,990.90
2019-01-14T04:41:29.358Z,990.92
2019-01-14T04:42:29.383Z,990.90
2019-01-14T04:43:29.409Z,990.90
2019-01-14T04:44:29.438Z,990.90
2019-01-14T04:45:29.463Z,990.75
2019-01-14T04:46:29.489Z,990.86
2019-01-14T04:47:29.517Z,990.84
2019-01-14T04:48:29.547Z,990.86
2019-01-14T04:49:29.572Z,990.89
2019-01-14T04:50:29.596Z,990.93
2019-01-14T04:51:29.623Z,990.93
2019-01-14T04:52:29.653Z,990.87
2019-01-14T04:53:29.676Z,990.90
2019-01-14T04:54:29.701Z,990.85
2019-01-14T04:55:29.727Z,990.83
2019-01-14T04:56:29.760Z,990.77
2019-01-14T04:57:29.780Z,990.77
2019-01-14T04:58:29.806Z,990.81
2019-01-14T04:59:29.837Z,990.75
2019-01-14T05:00:29.861Z,990.74
2019-01-14T05:01:29.886Z,990.85
2019-01-14T05:02:29.911Z,990.74
2019-01-14T05:03:29.939Z,990.76
2019-01-14T05:04:29.965Z,990.78
2019-01-14T05:05:29.992Z,990.76
2019-01-14T05:06:30.019Z,990.82
2019-01-14T05:07:30.045Z,990.84
2019-01-14T05:08:30.070Z,990.81
2019-01-14T05:09:30.097Z,990.84
2019-01-14T05:10:30.124Z,990.87
2019-01-14T05:11:30.150Z,990.89
2019-01-14T05:12:30.177Z,990.91
2019-01-14T05:13:30.206Z,990.92
2019-01-14T05:14:30.230Z,990.91
2019-01-14T05:15:30.255Z,990.92
2019-01-14T05:16:30.333Z,990.97
2019-01-14T05:17:30.308Z,990.93
2019-01-14T05:18:30.340Z,990.96
2019-01-14T05:19:30.361Z,990.97
2019-01-14T05:20:30.388Z,990.91
2019-01-14T05:21:30.417Z,990.93
2019-01-14T05:22:30.440Z,990.93
2019-01-14T05:23:30.467Z,990.98
2019-01-14T05:24:30.495Z,990.95
2019-01-14T05:25:30.521Z,990.98
2019-01-14T05:26:30.545Z,990.98
2019-01-14T05:27:30.572Z,990.96
2019-01-14T05:28:30.601Z,990.96
2019-01-14T05:29:30.629Z,991.00
2019-01-14T05:30:30.651Z,991.08
2019-01-14T05:31:30.679Z,991.11
2019-01-14T05:32:30.704Z,991.09
2019-01-14T05:33:30.732Z,991.15
2019-01-14T05:34:30.757Z,991.09
2019-01-14T05:35:30.785Z,991.09
2019-01-14T05:36:30.810Z,991.12
2019-01-14T05:37:37.429Z,991.14
2019-01-14T05:38:30.862Z,991.17
2019-01-14T05:39:30.891Z,991.18
2019-01-14T05:40:30.916Z,991.18
2019-01-14T05:41:30.944Z,991.16
2019-01-14T05:42:30.970Z,991.19
2019-01-14T05:43:30.996Z,991.21
2019-01-14T05:44:31.022Z,991.22
2019-01-14T05:45:31.049Z,991.25
2019-01-14T05:46:31.075Z,991.22
2019-01-14T05:47:31.103Z,991.25
2019-01-14T05:48:31.130Z,991.28
2019-01-14T05:49:31.156Z,991.21
2019-01-14T05:50:31.180Z,991.20
2019-01-14T05:51:31.208Z,991.20
2019-01-14T05:52:31.234Z,991.24
2019-01-14T05:53:31.260Z,991.26
2019-01-14T05:54:31.285Z,991.22
2019-01-14T05:55:31.312Z,991.25
2019-01-14T05:56:31.339Z,991.27
2019-01-14T05:57:31.368Z,991.29
2019-01-14T05:58:31.392Z,991.29
2019-01-14T05:59:31.419Z,991.27
2019-01-14T06:00:31.444Z,991.32
2019-01-14T06:01:31.473Z,991.32
2019-01-14T06:02:31.501Z,991.31
2019-01-14T06:03:31.524Z,991.35
2019-01-14T06:04:31.553Z,991.40
2019-01-14T06:05:31.578Z,991.42
2019-01-14T06:06:31.612Z,991.45
2019-01-14T06:07:31.632Z,991.48
2019-01-14T06:08:31.661Z,991.50
2019-01-14T06:09:31.687Z,991.54
2019-01-14T06:10:31.711Z,991.53
2019-01-14T06:11:31.742Z,991.55
2019-01-14T06:12:31.770Z,991.55
2019-01-14T06:13:31.792Z,991.50
2019-01-14T06:14:31.820Z,991.48
2019-01-14T06:15:31.849Z,991.42
2019-01-14T06:16:31.875Z,991.44
2019-01-14T06:17:31.902Z,991.50
2019-01-14T06:18:31.927Z,991.51
2019-01-14T06:19:31.952Z,991.53
2019-01-14T06:20:31.979Z,991.56
2019-01-14T06:21:32.006Z,991.63
2019-01-14T06:22:32.032Z,991.65
2019-01-14T06:23:32.060Z,991.73
2019-01-14T06:24:32.088Z,991.74
2019-01-14T06:25:32.113Z,991.78
2019-01-14T06:26:32.139Z,991.78
2019-01-14T06:27:32.166Z,991.75
2019-01-14T06:28:32.192Z,991.76
2019-01-14T06:29:32.221Z,991.81
2019-01-14T06:30:32.246Z,991.79
2019-01-14T06:31:32.273Z,991.88
2019-01-14T06:32:32.300Z,991.87
2019-01-14T06:33:32.327Z,991.87
2019-01-14T06:34:32.359Z,991.89
2019-01-14T06:35:32.378Z,991.90
2019-01-14T06:36:32.407Z,991.92
2019-01-14T06:37:32.433Z,991.88
2019-01-14T06:38:32.459Z,991.93
2019-01-14T06:39:32.486Z,992.00
2019-01-14T06:40:32.663Z,991.95
2019-01-14T06:41:32.540Z,992.01
2019-01-14T06:42:32.566Z,992.01
2019-01-14T06:43:32.593Z,991.97
2019-01-14T06:44:32.625Z,992.06
2019-01-14T06:45:32.648Z,992.09
2019-01-14T06:46:32.673Z,992.04
2019-01-14T06:47:32.700Z,992.12
2019-01-14T06:48:32.727Z,992.11
2019-01-14T06:49:32.755Z,992.16
2019-01-14T06:50:32.784Z,992.20
2019-01-14T06:51:32.807Z,992.24
2019-01-14T06:52:32.834Z,992.21
2019-01-14T06:53:32.862Z,992.24
2019-01-14T06:54:32.886Z,992.26
2019-01-14T06:55:32.917Z,992.27
2019-01-14T06:56:32.941Z,992.27
2019-01-14T06:57:32.968Z,992.31
2019-01-14T06:58:32.993Z,992.31
2019-01-14T06:59:33.021Z,992.30
2019-01-14T07:00:33.049Z,992.36
2019-01-14T07:01:33.076Z,992.41
2019-01-14T07:02:33.100Z,992.42
2019-01-14T07:03:33.138Z,992.49
2019-01-14T07:04:33.154Z,992.51
2019-01-14T07:05:33.211Z,992.56
2019-01-14T07:06:33.207Z,992.55
2019-01-14T07:07:33.235Z,992.56
2019-01-14T07:08:33.262Z,992.57
2019-01-14T07:09:33.287Z,992.59
2019-01-14T07:10:33.367Z,992.60
2019-01-14T07:11:33.340Z,992.59
2019-01-14T07:12:33.368Z,992.64
2019-01-14T07:13:33.395Z,992.66
2019-01-14T07:14:33.421Z,992.67
2019-01-14T07:15:33.448Z,992.71
2019-01-14T07:16:33.475Z,992.68
2019-01-14T07:17:33.514Z,992.71
2019-01-14T07:18:33.525Z,992.68
2019-01-14T07:19:33.556Z,992.70
2019-01-14T07:20:33.579Z,992.78
2019-01-14T07:21:33.607Z,992.78
2019-01-14T07:22:33.631Z,992.83
2019-01-14T07:23:33.658Z,992.89
2019-01-14T07:24:33.685Z,992.89
2019-01-14T07:25:33.717Z,992.91
2019-01-14T07:26:33.740Z,992.87
2019-01-14T07:27:33.764Z,992.91
2019-01-14T07:28:33.803Z,992.95
2019-01-14T07:29:33.819Z,992.95
2019-01-14T07:30:33.844Z,992.96
2019-01-14T07:31:33.870Z,992.94
2019-01-14T07:32:33.898Z,992.89
2019-01-14T07:33:33.924Z,992.87
2019-01-14T07:34:33.951Z,992.92
2019-01-14T07:35:33.977Z,992.97
2019-01-14T07:36:34.003Z,993.00
2019-01-14T07:37:34.044Z,993.05
2019-01-14T07:38:34.074Z,993.02
2019-01-14T07:39:34.099Z,993.03
2019-01-14T07:40:34.124Z,993.02
2019-01-14T07:41:34.154Z,993.13
2019-01-14T07:42:34.168Z,993.11
2019-01-14T07:43:34.191Z,993.13
2019-01-14T07:44:34.216Z,993.11
2019-01-14T07:45:34.243Z,993.16
2019-01-14T07:46:34.270Z,993.17
2019-01-14T07:47:34.297Z,993.22
2019-01-14T07:48:34.324Z,993.27
2019-01-14T07:49:34.351Z,993.27
2019-01-14T07:50:34.394Z,993.26
2019-01-14T07:51:34.414Z,993.28
2019-01-14T07:52:34.449Z,993.29
2019-01-14T07:53:34.458Z,993.35
2019-01-14T07:54:34.482Z,993.37
2019-01-14T07:55:34.510Z,993.40
2019-01-14T07:56:34.536Z,993.47
2019-01-14T07:57:34.563Z,993.48
2019-01-14T07:58:34.588Z,993.46
2019-01-14T07:59:34.616Z,993.47
2019-01-14T08:00:34.642Z,993.52
2019-01-14T08:01:34.669Z,993.55
2019-01-14T08:02:34.694Z,993.61
2019-01-14T08:03:34.722Z,993.66
2019-01-14T08:04:34.749Z,993.70
2019-01-14T08:05:34.774Z,993.73
2019-01-14T08:06:34.802Z,993.79
2019-01-14T08:07:34.829Z,993.76
2019-01-14T08:08:34.854Z,993.79
2019-01-14T08:09:34.883Z,993.72
2019-01-14T08:10:34.907Z,993.75
2019-01-14T08:11:34.934Z,993.75
2019-01-14T08:12:34.961Z,993.82
2019-01-14T08:13:34.990Z,993.78
2019-01-14T08:14:35.014Z,993.80
2019-01-14T08:15:35.041Z,993.80
2019-01-14T08:16:35.067Z,993.85
2019-01-14T08:17:35.094Z,993.89
2019-01-14T08:18:35.120Z,993.86
2019-01-14T08:19:35.146Z,993.90
2019-01-14T08:20:35.172Z,993.88
2019-01-14T08:21:35.201Z,993.96
2019-01-14T08:22:35.239Z,993.95
2019-01-14T08:23:35.253Z,993.98
2019-01-14T08:24:35.331Z,993.98
2019-01-14T08:25:35.307Z,993.98
2019-01-14T08:26:35.335Z,994.04
2019-01-14T08:27:35.361Z,994.05
2019-01-14T08:28:35.388Z,994.06
2019-01-14T08:29:35.422Z,994.08
2019-01-14T08:30:35.442Z,994.15
2019-01-14T08:31:35.468Z,994.14
2019-01-14T08:32:35.495Z,994.15
2019-01-14T08:33:35.523Z,994.13
2019-01-14T08:34:35.548Z,994.13
2019-01-14T08:35:35.576Z,994.12
2019-01-14T08:36:35.658Z,994.09
2019-01-14T08:37:35.630Z,994.16
2019-01-14T08:38:35.656Z,994.17
2019-01-14T08:39:35.735Z,994.15
2019-01-14T08:40:35.714Z,994.16
2019-01-14T08:41:35.739Z,994.21
2019-01-14T08:42:35.773Z,994.20
2019-01-14T08:43:35.792Z,994.22
2019-01-14T08:44:35.819Z,994.18
2019-01-14T08:45:35.868Z,994.21
2019-01-14T08:46:35.918Z,994.19
2019-01-14T08:47:35.900Z,994.19
2019-01-14T08:48:35.931Z,994.20
2019-01-14T08:49:35.955Z,994.23
2019-01-14T08:50:35.981Z,994.23
2019-01-14T08:51:36.046Z,994.25
2019-01-14T08:52:36.036Z,994.21
2019-01-14T08:53:36.100Z,994.22
2019-01-14T08:54:36.090Z,994.20
2019-01-14T08:55:36.117Z,994.21
2019-01-14T08:56:36.176Z,994.26
2019-01-14T08:57:36.211Z,994.28
2019-01-14T08:58:36.201Z,994.31
2019-01-14T08:59:36.226Z,994.32
2019-01-14T09:00:36.256Z,994.34
2019-01-14T09:01:36.288Z,994.37
2019-01-14T09:02:36.310Z,994.40
2019-01-14T09:03:36.346Z,994.44
2019-01-14T09:04:36.365Z,994.43
2019-01-14T09:05:36.392Z,994.46
2019-01-14T09:06:36.421Z,994.44
2019-01-14T09:07:36.448Z,994.39
2019-01-14T09:08:36.476Z,994.38
2019-01-14T09:09:36.502Z,994.38
2019-01-14T09:10:36.531Z,994.40
2019-01-14T09:11:36.558Z,994.43
2019-01-14T09:12:36.588Z,994.39
2019-01-14T09:13:36.614Z,994.46
2019-01-14T09:14:36.640Z,994.44
2019-01-14T09:15:36.669Z,994.43
2019-01-14T09:16:36.696Z,994.50
2019-01-14T09:17:36.724Z,994.50
2019-01-14T09:18:36.759Z,994.49
2019-01-14T09:19:36.780Z,994.48
2019-01-14T09:20:36.808Z,994.51
2019-01-14T09:21:36.834Z,994.52
2019-01-14T09:22:36.861Z,994.58
2019-01-14T09:23:36.889Z,994.58
2019-01-14T09:24:36.917Z,994.56
2019-01-14T09:25:36.944Z,994.57
2019-01-14T09:26:36.971Z,994.64
2019-01-14T09:27:36.998Z,994.64
2019-01-14T09:28:37.027Z,994.70
2019-01-14T09:29:37.055Z,994.71
2019-01-14T09:30:37.083Z,994.68
2019-01-14T09:31:37.117Z,994.70
2019-01-14T09:32:37.136Z,994.69
2019-01-14T09:33:37.164Z,994.71
2019-01-14T09:34:37.193Z,994.69
2019-01-14T09:35:37.219Z,994.73
2019-01-14T09:36:37.247Z,994.77
2019-01-14T09:37:37.275Z,994.80
2019-01-14T09:38:37.300Z,994.85
2019-01-14T09:39:37.329Z,994.83
2019-01-14T09:40:37.358Z,994.97
2019-01-14T09:41:37.383Z,994.84
2019-01-14T09:42:37.412Z,994.76
2019-01-14T09:43:37.442Z,994.78
2019-01-14T09:44:37.468Z,994.74
2019-01-14T09:45:37.496Z,994.75
2019-01-14T09:46:37.524Z,994.77
2019-01-14T09:47:37.550Z,994.73
2019-01-14T09:48:37.580Z,994.74
2019-01-14T09:49:37.608Z,994.71
2019-01-14T09:50:37.637Z,994.77
2019-01-14T09:51:37.664Z,994.72
2019-01-14T09:52:37.693Z,994.75
2019-01-14T09:53:37.721Z,994.72
2019-01-14T09:54:37.749Z,994.74
2019-01-14T09:55:37.776Z,994.74
2019-01-14T09:56:37.805Z,994.74
2019-01-14T09:57:37.835Z,994.72
2019-01-14T09:58:37.869Z,994.72
2019-01-14T09:59:37.891Z,994.71
2019-01-14T10:00:37.921Z,994.70
2019-01-14T10:01:37.949Z,994.70
2019-01-14T10:02:37.976Z,994.70
2019-01-14T10:03:38.005Z,994.69
2019-01-14T10:04:38.037Z,994.66
2019-01-14T10:05:38.062Z,994.68
2019-01-14T10:06:38.090Z,994.71
2019-01-14T10:07:38.119Z,994.71
2019-01-14T10:08:43.020Z,994.64
2019-01-14T10:09:38.174Z,994.67
2019-01-14T10:10:38.204Z,994.72
2019-01-14T10:11:38.231Z,994.74
2019-01-14T10:12:38.261Z,994.70
2019-01-14T10:13:38.293Z,994.70
2019-01-14T10:14:38.345Z,994.69
2019-01-14T10:15:38.346Z,994.71
2019-01-14T10:16:38.374Z,994.74
2019-01-14T10:17:38.403Z,994.67
2019-01-14T10:18:38.430Z,994.66
2019-01-14T10:19:38.459Z,994.65
2019-01-14T10:20:38.488Z,994.68
2019-01-14T10:21:38.516Z,994.69
2019-01-14T10:22:38.544Z,994.68
2019-01-14T10:23:38.571Z,994.69
2019-01-14T10:24:38.601Z,994.71
2019-01-14T10:25:38.631Z,994.66
2019-01-14T10:26:38.657Z,994.70
2019-01-14T10:27:38.685Z,994.70
2019-01-14T10:28:38.756Z,994.69
2019-01-14T10:29:38.742Z,994.73
2019-01-14T10:30:38.770Z,994.69
2019-01-14T10:31:38.797Z,994.80
2019-01-14T10:32:38.826Z,994.79
2019-01-14T10:33:38.854Z,994.73
2019-01-14T10:34:38.885Z,994.72
2019-01-14T10:35:38.908Z,994.80
2019-01-14T10:36:38.937Z,994.80
2019-01-14T10:37:38.965Z,994.80
2019-01-14T10:38:38.991Z,994.77
2019-01-14T10:39:39.019Z,994.71
2019-01-14T10:40:39.049Z,994.83
2019-01-14T10:41:39.076Z,994.75
2019-01-14T10:42:39.103Z,994.80
2019-01-14T10:43:39.133Z,994.82
2019-01-14T10:44:39.159Z,994.87
2019-01-14T10:45:39.188Z,994.88
2019-01-14T10:46:39.216Z,994.96
2019-01-14T10:47:39.245Z,994.86
2019-01-14T10:48:39.272Z,994.87
2019-01-14T10:49:39.299Z,994.86
2019-01-14T10:50:39.326Z,994.83
2019-01-14T10:51:39.354Z,994.85
2019-01-14T10:52:39.382Z,994.87
2019-01-14T10:53:39.416Z,994.91
2019-01-14T10:54:39.440Z,994.87
2019-01-14T10:55:39.465Z,994.90
2019-01-14T10:56:43.912Z,994.92
2019-01-14T10:57:39.527Z,994.97
2019-01-14T10:58:39.549Z,995.00
2019-01-14T10:59:39.577Z,995.01
2019-01-14T11:00:39.606Z,995.08
2019-01-14T11:01:39.632Z,995.05
2019-01-14T11:02:39.661Z,995.19
2019-01-14T11:03:39.688Z,995.10
2019-01-14T11:04:39.717Z,995.05
2019-01-14T11:05:39.745Z,995.06
2019-01-14T11:06:39.772Z,995.24
2019-01-14T11:07:39.800Z,995.02
2019-01-14T11:08:39.829Z,995.00
2019-01-14T11:09:44.546Z,995.02
2019-01-14T11:10:39.884Z,994.99
2019-01-14T11:11:39.912Z,995.04
2019-01-14T11:12:39.940Z,995.03
2019-01-14T11:13:39.968Z,995.07
2019-01-14T11:14:39.995Z,995.06
2019-01-14T11:15:40.023Z,995.03
2019-01-14T11:16:40.052Z,995.11
2019-01-14T11:17:40.080Z,995.06
2019-01-14T11:18:40.111Z,995.05
2019-01-14T11:19:40.134Z,995.07
2019-01-14T11:20:40.164Z,995.09
2019-01-14T11:21:40.193Z,995.10
2019-01-14T11:22:40.219Z,995.13
2019-01-14T11:23:40.249Z,995.13
2019-01-14T11:24:40.278Z,995.18
2019-01-14T11:25:40.306Z,995.19
2019-01-14T11:26:40.333Z,995.17
2019-01-14T11:27:40.364Z,995.31
2019-01-14T11:28:40.391Z,995.23
2019-01-14T11:29:40.420Z,995.86
2019-01-14T11:30:40.448Z,995.02
2019-01-14T11:31:40.478Z,994.97
2019-01-14T11:32:40.506Z,994.94
2019-01-14T11:33:40.536Z,995.01
2019-01-14T11:34:40.565Z,994.96
2019-01-14T11:35:40.594Z,995.04
2019-01-14T11:36:40.623Z,995.08
2019-01-14T11:37:40.652Z,995.07
2019-01-14T11:38:40.684Z,995.09
2019-01-14T11:39:40.710Z,995.07
2019-01-14T11:40:40.738Z,995.12
2019-01-14T11:41:40.770Z,995.04
2019-01-14T11:42:40.798Z,995.02
2019-01-14T11:43:40.826Z,995.06
2019-01-14T11:44:40.857Z,995.06
2019-01-14T11:45:40.884Z,995.13
2019-01-14T11:46:40.912Z,995.11
2019-01-14T11:47:40.943Z,995.09
2019-01-14T11:48:40.969Z,995.14
2019-01-14T11:49:41.000Z,995.17
2019-01-14T11:50:41.027Z,995.19
2019-01-14T11:51:41.056Z,995.14
2019-01-14T11:52:41.084Z,995.13
2019-01-14T11:53:41.114Z,995.21
2019-01-14T11:54:41.140Z,995.21
2019-01-14T11:55:41.168Z,995.23
2019-01-14T11:56:41.198Z,995.22
2019-01-14T11:57:41.225Z,995.22
2019-01-14T11:58:41.252Z,995.22
2019-01-14T11:59:41.280Z,995.20
2019-01-14T12:00:41.310Z,995.25
2019-01-14T12:01:41.338Z,995.22
2019-01-14T12:02:41.365Z,995.21
2019-01-14T12:03:41.393Z,995.20
2019-01-14T12:04:41.420Z,995.24
2019-01-14T12:05:41.449Z,995.17
2019-01-14T12:06:41.475Z,995.22
2019-01-14T12:07:41.503Z,995.19
2019-01-14T12:08:41.532Z,995.19
2019-01-14T12:09:41.558Z,995.28
2019-01-14T12:10:41.587Z,995.26
2019-01-14T12:11:41.614Z,995.25
2019-01-14T12:12:41.642Z,995.32
2019-01-14T12:13:41.670Z,995.32
2019-01-14T12:14:41.697Z,995.27
2019-01-14T12:15:41.726Z,995.31
2019-01-14T12:16:41.753Z,995.35
2019-01-14T12:17:41.780Z,995.33
2019-01-14T12:18:41.807Z,995.37
2019-01-14T12:19:41.839Z,995.38
2019-01-14T12:20:41.863Z,995.38
2019-01-14T12:21:41.893Z,995.37
2019-01-14T12:22:41.916Z,995.35
2019-01-14T12:23:41.950Z,995.37
2019-01-14T12:24:41.972Z,995.37
2019-01-14T12:25:41.999Z,995.41
2019-01-14T12:26:42.026Z,995.39
2019-01-14T12:27:42.054Z,995.49
2019-01-14T12:28:42.081Z,995.56